Villa Georgetti, Puerto Rico
Current Conditions -  °F | °C
As of 6:56 AM on Thursday 25 Dec 2014 (Local Time) from TJSJ Reporting Station
Scattered Clouds Scattered Clouds  
Wind Chill: 76°   Ceiling: Unl
Heat Index: 76°   Visibility: 10mi
Dew Point: 70°   Wind: 3mph
Humidity: 82%   Direction: 110°ESE
Pressure: 30.06"   Gusts: NA
Location:  18.4548°N, 66.5389°W
Report Text: TJSJ 251056Z 11003KT 10SM FEW029 SCT036 SCT055 24/21 A3006 RMK AO2 SLP178 VCSH SE SW T02440211
Loading
Personal Weather Stations






























Interactive Weather Map New forecast layout! Learn more

10-Day Weather Forecast

Advertisements
Track Severe Weather on mobile